Flat Rock, North Carolina
Current Conditions -  °F | °C
As of 9:40 AM on Sunday 23 Nov 2014 (Local Time) from KAVL Reporting Station
Light Rain Light Rain  
Wind Chill: 40°   Ceiling: 200
Heat Index: 40°   Visibility: 1.2mi
Dew Point: 39°   Wind: 3mph
Humidity: 97%   Direction: 150°SSE
Pressure: 30.15"   Gusts: NA
Location:  35.27°N, 82.44°W
Report Text: KAVL 231440Z 15003KT 1 1/4SM -RA BR OVC002 04/04 A3015 RMK AO2 RAB11 P0001 T00440039
Loading
Personal Weather Stations






























Interactive Weather Map New forecast layout! Learn more

10-Day Weather Forecast

Advertisements
Track Severe Weather on mobile